createdAt,value
2023-04-29T00:01:34.307Z,36.00
2023-04-29T00:04:01.898Z,38.00
2023-04-29T00:06:29.504Z,35.50
2023-04-29T00:08:56.637Z,35.50
2023-04-29T00:11:23.958Z,39.00
2023-04-29T00:13:50.931Z,37.00
2023-04-29T00:16:18.808Z,39.25
2023-04-29T00:18:46.135Z,37.00
2023-04-29T00:21:13.489Z,39.00
2023-04-29T00:23:41.296Z,41.00
2023-04-29T00:26:08.809Z,41.50
2023-04-29T00:28:35.734Z,35.50
2023-04-29T00:31:03.109Z,34.00
2023-04-29T00:33:30.532Z,37.00
2023-04-29T00:35:57.740Z,40.50
2023-04-29T00:38:25.020Z,36.50
2023-04-29T00:40:52.276Z,37.00
2023-04-29T00:43:19.341Z,36.50
2023-04-29T00:45:47.215Z,37.25
2023-04-29T00:48:15.441Z,32.25
2023-04-29T00:50:43.291Z,36.75
2023-04-29T00:53:13.049Z,35.50
2023-04-29T00:55:41.993Z,41.25
2023-04-29T00:58:10.676Z,36.25
2023-04-29T01:00:38.412Z,39.25
2023-04-29T01:03:05.670Z,38.25
2023-04-29T01:05:33.951Z,37.25
2023-04-29T01:08:30.585Z,40.50
2023-04-29T01:11:11.621Z,34.00
2023-04-29T01:13:50.900Z,38.00
2023-04-29T01:16:22.453Z,36.50
2023-04-29T01:18:58.800Z,39.00
2023-04-29T01:21:26.223Z,35.75
2023-04-29T01:23:56.468Z,38.00
2023-04-29T01:26:24.598Z,39.00
2023-04-29T01:29:15.899Z,35.00
2023-04-29T01:31:50.127Z,35.75
2023-04-29T01:34:31.361Z,34.00
2023-04-29T01:37:01.929Z,36.50
2023-04-29T01:39:40.139Z,35.75
2023-04-29T01:42:36.298Z,34.00
2023-04-29T01:45:08.000Z,38.75
2023-04-29T01:47:37.127Z,34.00
2023-04-29T01:50:04.240Z,30.25
2023-04-29T01:52:31.701Z,30.00
2023-04-29T01:54:59.060Z,31.50
2023-04-29T01:57:26.413Z,30.00
2023-04-29T01:59:53.687Z,29.00
2023-04-29T02:02:23.691Z,27.75
2023-04-29T02:04:50.879Z,28.00
2023-04-29T02:07:18.335Z,30.00
2023-04-29T02:09:45.434Z,26.25
2023-04-29T02:12:12.791Z,28.75
2023-04-29T02:14:39.882Z,25.50
2023-04-29T02:17:07.243Z,33.75
2023-04-29T02:19:34.294Z,31.25
2023-04-29T02:22:01.537Z,26.33
2023-04-29T02:24:28.600Z,15.50
2023-04-29T02:26:56.212Z,28.50
2023-04-29T02:29:23.285Z,27.75
2023-04-29T02:31:50.923Z,25.00
2023-04-29T02:34:18.248Z,14.00
2023-04-29T02:36:45.758Z,15.67
2023-04-29T02:39:12.736Z,24.67
2023-04-29T02:41:40.103Z,21.00
2023-04-29T02:44:07.408Z,24.33
2023-04-29T02:46:36.270Z,20.67
2023-04-29T02:49:04.096Z,3.00
2023-04-29T02:51:31.368Z,16.00
2023-04-29T02:53:58.814Z,15.67
2023-04-29T02:56:26.257Z,19.00
2023-04-29T02:58:53.250Z,8.00
2023-04-29T03:01:20.881Z,20.33
2023-04-29T03:03:49.664Z,17.00
2023-04-29T03:06:17.115Z,18.00
2023-04-29T03:08:44.210Z,18.67
2023-04-29T03:11:11.409Z,17.33
2023-04-29T03:13:38.795Z,17.00
2023-04-29T03:16:07.327Z,20.33
2023-04-29T03:18:34.472Z,23.67
2023-04-29T03:21:02.516Z,25.67
2023-04-29T03:23:29.692Z,23.00
2023-04-29T03:25:57.132Z,18.67
2023-04-29T03:28:24.196Z,12.67
2023-04-29T03:30:51.593Z,14.00
2023-04-29T03:33:18.942Z,13.33
2023-04-29T03:35:46.374Z,13.67
2023-04-29T03:38:13.490Z,13.67
2023-04-29T03:40:43.261Z,10.33
2023-04-29T03:43:10.657Z,13.67
2023-04-29T03:45:38.159Z,11.00
2023-04-29T03:48:05.833Z,13.67
2023-04-29T03:50:33.187Z,14.00
2023-04-29T03:53:00.370Z,14.33
2023-04-29T03:55:27.600Z,13.00
2023-04-29T03:57:54.512Z,14.00
2023-04-29T04:00:21.944Z,11.67
2023-04-29T04:02:49.203Z,16.33
2023-04-29T04:05:16.794Z,13.00
2023-04-29T04:07:43.893Z,15.33
2023-04-29T04:10:11.349Z,10.33
2023-04-29T04:12:38.277Z,11.67
2023-04-29T04:15:06.076Z,12.00
2023-04-29T04:17:33.052Z,14.00
2023-04-29T04:20:00.290Z,7.67
2023-04-29T04:22:27.349Z,10.00
2023-04-29T04:24:57.926Z,9.33
2023-04-29T04:27:24.809Z,9.00
2023-04-29T04:29:55.604Z,8.67
2023-04-29T04:32:23.939Z,12.67
2023-04-29T04:34:51.275Z,11.00
2023-04-29T04:37:18.317Z,13.00
2023-04-29T04:39:46.443Z,10.00
2023-04-29T04:42:13.456Z,11.00
2023-04-29T04:44:40.646Z,5.00
2023-04-29T04:47:07.680Z,11.00
2023-04-29T04:49:37.746Z,11.67
2023-04-29T04:52:05.395Z,12.00
2023-04-29T04:54:32.584Z,10.00
2023-04-29T04:56:59.541Z,12.00
2023-04-29T04:59:27.016Z,11.00
2023-04-29T05:01:54.087Z,13.00
2023-04-29T05:04:21.632Z,13.00
2023-04-29T05:06:48.796Z,14.00
2023-04-29T05:09:16.597Z,13.67
2023-04-29T05:11:43.629Z,12.00
2023-04-29T05:14:11.049Z,10.67
2023-04-29T05:16:38.534Z,13.67
2023-04-29T05:19:05.945Z,11.33
2023-04-29T05:21:32.954Z,13.00
2023-04-29T05:24:00.219Z,11.33
2023-04-29T05:26:27.276Z,12.33
2023-04-29T05:28:55.504Z,16.67
2023-04-29T05:31:22.690Z,17.33
2023-04-29T05:33:49.892Z,17.67
2023-04-29T05:36:16.862Z,12.33
2023-04-29T05:38:45.463Z,11.67
2023-04-29T05:41:14.295Z,15.33
2023-04-29T05:43:41.711Z,14.00
2023-04-29T05:46:09.008Z,15.00
2023-04-29T05:48:36.380Z,14.33
2023-04-29T05:51:03.459Z,14.67
2023-04-29T05:53:31.778Z,16.00
2023-04-29T05:55:59.022Z,9.00
2023-04-29T05:58:26.620Z,14.00
2023-04-29T06:00:53.675Z,17.00
2023-04-29T06:03:21.299Z,16.33
2023-04-29T06:05:48.873Z,14.67
2023-04-29T06:08:16.486Z,15.00
2023-04-29T06:10:43.434Z,12.67
2023-04-29T06:13:10.817Z,16.67
2023-04-29T06:15:38.085Z,14.33
2023-04-29T06:18:05.372Z,11.67
2023-04-29T06:20:32.505Z,14.33
2023-04-29T06:22:59.999Z,14.33
2023-04-29T06:25:27.081Z,18.00
2023-04-29T06:27:56.522Z,14.67
2023-04-29T06:30:23.861Z,13.33
2023-04-29T06:32:51.360Z,14.33
2023-04-29T06:35:18.563Z,13.33
2023-04-29T06:37:48.215Z,17.67
2023-04-29T06:40:15.269Z,17.33
2023-04-29T06:42:43.863Z,13.00
2023-04-29T06:45:11.676Z,15.33
2023-04-29T06:47:38.968Z,15.33
2023-04-29T06:50:06.386Z,15.33
2023-04-29T06:52:34.651Z,14.00
2023-04-29T06:55:01.640Z,15.33
2023-04-29T06:57:29.041Z,18.33
2023-04-29T06:59:56.271Z,15.33
2023-04-29T07:02:23.582Z,16.67
2023-04-29T07:04:51.320Z,15.33
2023-04-29T07:07:21.871Z,17.67
2023-04-29T07:09:52.204Z,17.67
2023-04-29T07:12:19.924Z,13.00
2023-04-29T07:14:47.267Z,15.00
2023-04-29T07:17:14.519Z,18.00
2023-04-29T07:19:41.639Z,18.00
2023-04-29T07:22:09.001Z,19.00
2023-04-29T07:24:35.946Z,13.67
2023-04-29T07:27:03.166Z,12.00
2023-04-29T07:29:30.179Z,14.67
2023-04-29T07:31:57.394Z,14.00
2023-04-29T07:34:24.559Z,1.00
2023-04-29T07:36:51.824Z,12.33
2023-04-29T07:39:18.894Z,12.33
2023-04-29T07:41:46.231Z,11.00
2023-04-29T07:44:13.521Z,6.00
2023-04-29T07:46:40.889Z,8.00
2023-04-29T07:49:08.042Z,6.75
2023-04-29T07:51:35.474Z,10.00
2023-04-29T07:54:02.594Z,8.00
2023-04-29T07:56:30.202Z,7.25
2023-04-29T07:58:57.180Z,7.00
2023-04-29T08:01:24.513Z,8.50
2023-04-29T08:03:52.101Z,9.00
2023-04-29T08:06:22.470Z,8.00
2023-04-29T08:08:49.952Z,10.50
2023-04-29T08:11:18.528Z,9.75
2023-04-29T08:13:45.913Z,8.50
2023-04-29T08:16:13.752Z,12.00
2023-04-29T08:18:40.905Z,10.50
2023-04-29T08:21:08.383Z,9.25
2023-04-29T08:23:35.939Z,9.75
2023-04-29T08:26:03.683Z,9.00
2023-04-29T08:28:31.173Z,8.00
2023-04-29T08:30:58.515Z,10.50
2023-04-29T08:33:25.759Z,11.00
2023-04-29T08:35:59.606Z,11.00
2023-04-29T08:38:26.795Z,9.75
2023-04-29T08:40:53.990Z,11.75
2023-04-29T08:43:22.294Z,11.00
2023-04-29T08:45:50.282Z,12.50
2023-04-29T08:48:18.096Z,11.50
2023-04-29T08:50:45.830Z,14.75
2023-04-29T08:53:14.166Z,11.25
2023-04-29T08:55:48.474Z,15.00
2023-04-29T08:58:16.483Z,13.00
2023-04-29T09:00:44.950Z,16.50
2023-04-29T09:03:15.210Z,17.25
2023-04-29T09:05:43.661Z,13.00
2023-04-29T09:08:12.714Z,12.00
2023-04-29T09:10:42.934Z,14.25
2023-04-29T09:13:10.132Z,13.00
2023-04-29T09:15:38.480Z,9.50
2023-04-29T09:18:06.888Z,12.25
2023-04-29T09:20:34.237Z,10.25
2023-04-29T09:23:04.201Z,12.00
2023-04-29T09:25:32.002Z,10.75
2023-04-29T09:27:59.150Z,12.25
2023-04-29T09:30:27.037Z,12.50
2023-04-29T09:33:08.618Z,11.75
2023-04-29T09:35:36.429Z,10.25
2023-04-29T09:38:14.321Z,8.75
2023-04-29T09:40:57.396Z,12.50
2023-04-29T09:43:25.297Z,10.75
2023-04-29T09:45:52.982Z,8.75
2023-04-29T09:48:19.932Z,9.50
2023-04-29T09:51:01.602Z,13.25
2023-04-29T09:53:30.235Z,12.25
2023-04-29T09:56:01.464Z,11.50
2023-04-29T09:58:38.179Z,9.25
2023-04-29T10:01:06.242Z,8.50
2023-04-29T10:03:35.091Z,9.75
2023-04-29T10:06:04.628Z,11.25
2023-04-29T10:08:32.573Z,10.50
2023-04-29T10:11:04.381Z,10.00
2023-04-29T10:13:32.205Z,11.75
2023-04-29T10:16:21.687Z,8.50
2023-04-29T10:18:56.106Z,9.75
2023-04-29T10:21:32.550Z,8.25
2023-04-29T10:24:00.854Z,12.00
2023-04-29T10:26:29.475Z,10.00
2023-04-29T10:28:57.381Z,13.50
2023-04-29T10:31:28.309Z,12.25
2023-04-29T10:33:57.586Z,9.25
2023-04-29T10:36:30.671Z,11.00
2023-04-29T10:39:00.507Z,14.00
2023-04-29T10:41:32.023Z,10.50
2023-04-29T10:43:59.847Z,10.25
2023-04-29T10:46:28.067Z,10.50
2023-04-29T10:49:03.278Z,12.00
2023-04-29T10:51:42.855Z,9.00
2023-04-29T10:54:14.801Z,10.00
2023-04-29T10:56:50.280Z,9.50
2023-04-29T10:59:22.329Z,10.50
2023-04-29T11:01:51.960Z,13.75
2023-04-29T11:04:22.907Z,12.50
2023-04-29T11:06:55.466Z,11.50
2023-04-29T11:09:26.477Z,13.25
2023-04-29T11:11:58.379Z,12.50
2023-04-29T11:14:36.926Z,5.75
2023-04-29T11:17:09.451Z,13.00
2023-04-29T11:19:49.737Z,20.67
2023-04-29T11:22:21.673Z,16.67
2023-04-29T11:24:55.683Z,15.67
2023-04-29T11:27:28.059Z,22.00
2023-04-29T11:29:58.826Z,19.00
2023-04-29T11:32:31.154Z,21.67
2023-04-29T11:35:15.251Z,18.00
2023-04-29T11:37:44.624Z,10.00
2023-04-29T11:40:13.601Z,21.33
2023-04-29T11:42:48.819Z,27.00
2023-04-29T11:45:19.514Z,20.00
2023-04-29T11:47:47.824Z,20.33
2023-04-29T11:50:18.121Z,20.33
2023-04-29T11:52:47.005Z,20.00
2023-04-29T11:55:14.939Z,18.33
2023-04-29T11:57:42.084Z,27.33
2023-04-29T12:00:14.297Z,25.67
2023-04-29T12:02:45.655Z,27.33
2023-04-29T12:05:13.860Z,27.67
2023-04-29T12:07:41.270Z,30.33
2023-04-29T12:10:12.437Z,31.00
2023-04-29T12:12:44.270Z,26.33
2023-04-29T12:15:12.961Z,21.67
2023-04-29T12:17:40.530Z,26.00
2023-04-29T12:20:12.319Z,27.00
2023-04-29T12:22:40.066Z,24.00
2023-04-29T12:25:08.170Z,25.33
2023-04-29T12:27:36.540Z,23.33
2023-04-29T12:30:08.728Z,25.67
2023-04-29T12:32:37.061Z,17.67
2023-04-29T12:35:04.810Z,24.00
2023-04-29T12:37:32.503Z,25.33
2023-04-29T12:39:59.881Z,26.00
2023-04-29T12:42:33.599Z,22.00
2023-04-29T12:45:01.179Z,26.00
2023-04-29T12:47:35.073Z,21.00
2023-04-29T12:50:03.114Z,24.67
2023-04-29T12:52:30.105Z,26.33
2023-04-29T12:54:57.701Z,25.67
2023-04-29T12:57:26.520Z,22.33
2023-04-29T12:59:53.767Z,21.00
2023-04-29T13:02:21.102Z,24.67
2023-04-29T13:04:48.948Z,25.00
2023-04-29T13:07:16.138Z,22.67
2023-04-29T13:09:43.391Z,26.67
2023-04-29T13:12:10.583Z,24.67
2023-04-29T13:14:37.970Z,24.00
2023-04-29T13:17:05.272Z,20.33
2023-04-29T13:19:48.127Z,10.00
2023-04-29T13:22:17.599Z,22.33
2023-04-29T13:24:44.945Z,22.67
2023-04-29T13:27:12.064Z,14.67
2023-04-29T13:29:39.617Z,20.67
2023-04-29T13:32:06.806Z,20.33
2023-04-29T13:34:35.048Z,26.33
2023-04-29T13:37:02.344Z,23.67
2023-04-29T13:39:30.207Z,27.00
2023-04-29T13:41:59.188Z,21.67
2023-04-29T13:44:33.265Z,21.00
2023-04-29T13:47:13.744Z,23.00
2023-04-29T13:50:19.735Z,15.67
2023-04-29T13:55:46.629Z,17.33
2023-04-29T14:05:26.261Z,8.00
2023-04-29T14:07:53.641Z,10.25
2023-04-29T14:10:21.161Z,16.25
2023-04-29T14:12:48.921Z,11.25
2023-04-29T14:15:16.879Z,9.75
2023-04-29T14:17:43.852Z,13.75
2023-04-29T14:20:11.515Z,6.00
2023-04-29T14:22:38.678Z,12.50
2023-04-29T14:25:07.097Z,14.00
2023-04-29T14:27:35.900Z,11.75
2023-04-29T14:30:04.872Z,10.75
2023-04-29T14:32:31.992Z,14.00
2023-04-29T14:34:59.632Z,12.00
2023-04-29T14:37:27.058Z,9.25
2023-04-29T14:39:54.656Z,12.00
2023-04-29T14:42:22.049Z,8.00
2023-04-29T14:44:49.597Z,10.50
2023-04-29T14:47:16.637Z,8.50
2023-04-29T14:49:44.226Z,7.00
2023-04-29T14:52:11.431Z,9.50
2023-04-29T14:54:38.821Z,9.00
2023-04-29T14:57:06.354Z,9.50
2023-04-29T14:59:34.078Z,5.75
2023-04-29T15:02:01.069Z,9.00
2023-04-29T15:04:28.706Z,9.00
2023-04-29T15:06:58.343Z,8.00
2023-04-29T15:09:26.977Z,6.25
2023-04-29T15:11:54.140Z,12.25
2023-04-29T15:14:22.111Z,13.75
2023-04-29T15:16:49.383Z,8.50
2023-04-29T15:19:17.660Z,15.25
2023-04-29T15:21:44.750Z,9.50
2023-04-29T15:24:12.020Z,6.75
2023-04-29T15:26:39.207Z,9.50
2023-04-29T15:29:06.823Z,6.75
2023-04-29T15:31:34.186Z,9.75
2023-04-29T15:34:02.171Z,11.00
2023-04-29T15:36:31.286Z,10.00
2023-04-29T15:38:58.536Z,11.00
2023-04-29T15:41:26.773Z,15.50
2023-04-29T15:43:55.179Z,7.75
2023-04-29T15:46:22.307Z,9.25
2023-04-29T15:48:49.751Z,8.25
2023-04-29T15:51:17.252Z,8.75
2023-04-29T15:53:44.853Z,9.50
2023-04-29T15:56:12.162Z,10.00
2023-04-29T15:58:39.752Z,11.00
2023-04-29T16:01:09.608Z,11.25
2023-04-29T16:03:37.312Z,9.75
2023-04-29T16:06:04.850Z,6.50
2023-04-29T16:08:32.207Z,10.00
2023-04-29T16:10:59.274Z,6.67
2023-04-29T16:13:27.166Z,9.67
2023-04-29T16:15:54.943Z,7.75
2023-04-29T16:18:22.256Z,11.00
2023-04-29T16:20:49.674Z,10.00
2023-04-29T16:23:16.933Z,10.67
2023-04-29T16:25:43.933Z,5.00
2023-04-29T16:28:11.538Z,14.00
2023-04-29T16:30:38.481Z,11.00
2023-04-29T16:33:06.007Z,10.75
2023-04-29T16:35:34.160Z,10.00
2023-04-29T16:38:01.508Z,9.33
2023-04-29T16:40:29.709Z,13.00
2023-04-29T16:42:57.626Z,10.33
2023-04-29T16:45:25.745Z,11.00
2023-04-29T16:47:54.925Z,11.33
2023-04-29T16:50:22.194Z,15.67
2023-04-29T16:52:49.516Z,9.67
2023-04-29T16:55:16.589Z,10.33
2023-04-29T16:57:44.089Z,15.00
2023-04-29T17:00:11.898Z,13.33
2023-04-29T17:02:40.807Z,14.33
2023-04-29T17:05:09.241Z,13.33
2023-04-29T17:07:36.774Z,14.33
2023-04-29T17:10:05.201Z,33.33
2023-04-29T17:12:33.485Z,18.67
2023-04-29T17:15:01.125Z,7.00
2023-04-29T17:17:28.693Z,22.33
2023-04-29T17:19:56.979Z,20.33
2023-04-29T17:22:24.534Z,25.33
2023-04-29T17:24:52.071Z,13.33
2023-04-29T17:27:19.396Z,16.00
2023-04-29T17:29:46.435Z,19.67
2023-04-29T17:32:17.301Z,18.00
2023-04-29T17:34:44.656Z,19.67
2023-04-29T17:37:12.031Z,20.67
2023-04-29T17:39:39.018Z,17.33
2023-04-29T17:42:07.651Z,19.00
2023-04-29T17:44:35.821Z,25.00
2023-04-29T17:47:03.319Z,18.67
2023-04-29T17:49:30.564Z,19.00
2023-04-29T17:51:59.990Z,25.67
2023-04-29T17:54:27.409Z,24.67
2023-04-29T17:56:59.112Z,34.00
2023-04-29T17:59:26.281Z,40.75
2023-04-29T18:01:53.961Z,43.00
2023-04-29T18:04:21.503Z,42.50
2023-04-29T18:06:48.676Z,42.50
2023-04-29T18:09:16.524Z,36.00
2023-04-29T18:11:47.282Z,30.67
2023-04-29T18:14:14.384Z,29.33
2023-04-29T18:16:42.077Z,35.33
2023-04-29T18:19:09.601Z,37.25
2023-04-29T18:21:36.793Z,40.00
2023-04-29T18:24:04.115Z,40.50
2023-04-29T18:26:32.163Z,44.75
2023-04-29T18:28:59.270Z,38.00
2023-04-29T18:31:26.751Z,44.00
2023-04-29T18:33:54.221Z,38.50
2023-04-29T18:36:21.752Z,40.00
2023-04-29T18:38:48.913Z,38.33
2023-04-29T18:41:16.250Z,34.00
2023-04-29T18:43:43.282Z,35.67
2023-04-29T18:46:10.877Z,32.00
2023-04-29T18:48:40.566Z,39.75
2023-04-29T18:51:07.907Z,36.25
2023-04-29T18:53:34.909Z,47.00
2023-04-29T18:56:03.398Z,50.50
2023-04-29T18:58:30.601Z,53.50
2023-04-29T19:01:00.285Z,54.50
2023-04-29T19:03:28.953Z,71.75
2023-04-29T19:05:56.293Z,70.25
2023-04-29T19:08:23.539Z,54.75
2023-04-29T19:10:53.485Z,58.00
2023-04-29T19:13:20.675Z,59.50
2023-04-29T19:15:50.972Z,55.00
2023-04-29T19:18:20.238Z,58.75
2023-04-29T19:20:48.974Z,66.00
2023-04-29T19:23:16.297Z,56.00
2023-04-29T19:25:44.165Z,59.50
2023-04-29T19:28:11.137Z,53.75
2023-04-29T19:30:38.559Z,55.50
2023-04-29T19:33:06.608Z,46.25
2023-04-29T19:35:34.013Z,49.50
2023-04-29T19:38:01.525Z,47.50
2023-04-29T19:40:29.756Z,53.50
2023-04-29T19:42:57.458Z,54.00
2023-04-29T19:45:25.185Z,55.75
2023-04-29T19:47:55.360Z,49.50
2023-04-29T19:50:22.991Z,50.25
2023-04-29T19:52:50.175Z,51.25
2023-04-29T19:55:17.820Z,48.25
2023-04-29T19:57:45.284Z,54.25
2023-04-29T20:00:16.014Z,44.33
2023-04-29T20:02:44.051Z,43.67
2023-04-29T20:05:11.579Z,42.25
2023-04-29T20:07:38.569Z,37.00
2023-04-29T20:10:07.344Z,41.00
2023-04-29T20:12:35.848Z,40.00
2023-04-29T20:15:06.020Z,42.67
2023-04-29T20:17:33.559Z,39.67
2023-04-29T20:20:01.771Z,38.75
2023-04-29T20:22:29.663Z,41.25
2023-04-29T20:24:57.409Z,40.50
2023-04-29T20:27:24.362Z,42.75
2023-04-29T20:29:51.672Z,39.75
2023-04-29T20:32:19.117Z,39.25
2023-04-29T20:34:46.974Z,43.00
2023-04-29T20:37:14.013Z,36.33
2023-04-29T20:39:41.662Z,34.33
2023-04-29T20:42:09.828Z,34.67
2023-04-29T20:44:38.283Z,30.00
2023-04-29T20:47:06.176Z,35.67
2023-04-29T20:49:34.108Z,34.67
2023-04-29T20:52:02.327Z,34.33
2023-04-29T20:54:30.272Z,27.67
2023-04-29T20:56:57.262Z,24.33
2023-04-29T20:59:24.588Z,27.00
2023-04-29T21:01:51.921Z,25.67
2023-04-29T21:04:21.222Z,25.33
2023-04-29T21:06:49.648Z,23.67
2023-04-29T21:09:17.894Z,12.00
2023-04-29T21:11:44.883Z,13.00
2023-04-29T21:14:13.389Z,12.33
2023-04-29T21:16:41.077Z,15.33
2023-04-29T21:19:08.351Z,10.33
2023-04-29T21:21:35.670Z,16.00
2023-04-29T21:24:03.351Z,16.00
2023-04-29T21:26:30.450Z,12.67
2023-04-29T21:28:57.806Z,17.00
2023-04-29T21:31:25.082Z,13.67
2023-04-29T21:33:52.532Z,19.00
2023-04-29T21:36:19.531Z,21.00
2023-04-29T21:38:47.033Z,23.33
2023-04-29T21:41:37.411Z,21.67
2023-04-29T21:44:06.625Z,25.33
2023-04-29T21:46:34.902Z,18.33
2023-04-29T21:49:03.322Z,25.00
2023-04-29T21:51:31.806Z,25.33
2023-04-29T21:53:59.446Z,25.33
2023-04-29T21:56:27.168Z,26.67
2023-04-29T21:58:54.631Z,23.67
2023-04-29T22:01:39.903Z,27.33
2023-04-29T22:04:07.685Z,19.33
2023-04-29T22:06:34.961Z,26.00
2023-04-29T22:09:03.020Z,28.00
2023-04-29T22:11:30.786Z,23.67
2023-04-29T22:13:58.077Z,23.00
2023-04-29T22:16:25.529Z,17.67
2023-04-29T22:18:53.131Z,18.00
2023-04-29T22:21:20.058Z,25.00
2023-04-29T22:23:47.466Z,21.00
2023-04-29T22:26:14.908Z,29.33
2023-04-29T22:28:42.140Z,18.67
2023-04-29T22:31:09.200Z,30.33
2023-04-29T22:33:36.840Z,27.00
2023-04-29T22:36:04.802Z,24.67
2023-04-29T22:38:32.298Z,27.33
2023-04-29T22:40:59.847Z,23.00
2023-04-29T22:43:27.036Z,20.00
2023-04-29T22:45:55.133Z,22.00
2023-04-29T22:48:26.756Z,21.00
2023-04-29T22:50:55.731Z,22.33
2023-04-29T22:53:23.103Z,21.00
2023-04-29T22:55:54.913Z,24.67
2023-04-29T22:58:22.592Z,20.00
2023-04-29T23:00:54.698Z,25.00
2023-04-29T23:03:22.631Z,21.00
2023-04-29T23:05:50.603Z,24.67
2023-04-29T23:08:18.071Z,30.00
2023-04-29T23:10:51.850Z,25.00
2023-04-29T23:13:19.372Z,24.00
2023-04-29T23:15:46.639Z,30.33
2023-04-29T23:18:14.310Z,19.00
2023-04-29T23:20:41.556Z,22.67
2023-04-29T23:23:08.889Z,23.67
2023-04-29T23:25:35.969Z,18.33
2023-04-29T23:28:03.507Z,17.33
2023-04-29T23:30:32.003Z,22.33
2023-04-29T23:32:59.272Z,17.67
2023-04-29T23:35:27.343Z,19.67
2023-04-29T23:37:55.415Z,18.67
2023-04-29T23:40:22.325Z,18.33
2023-04-29T23:42:49.566Z,19.33
2023-04-29T23:45:16.557Z,22.67
2023-04-29T23:47:43.888Z,22.67
2023-04-29T23:50:11.030Z,22.00
2023-04-29T23:52:38.475Z,19.00
2023-04-29T23:55:05.881Z,19.33
2023-04-29T23:57:33.304Z,23.33
